Little Genesee, New York
Current Conditions -  °F | °C
As of 8:16 PM on Tuesday 21 Oct 2014 (Local Time) from KELZ Reporting Station
Overcast Overcast  
Wind Chill: 47°   Ceiling: 300
Heat Index: 47°   Visibility: 10mi
Dew Point: 45°   Wind: 3mph
Humidity: 93%   Direction: NA
Pressure: 29.96"   Gusts: NA
Location:  42.03°N, 78.21°W
Report Text: KELZ 220016Z AUTO VRB03KT 10SM OVC003 08/07 A2996 RMK AO2 T00830072
Loading
Personal Weather Stations






























Interactive Weather Map
Tropical Storm Tracking
New forecast layout! Learn more

10-Day Weather Forecast

Advertisements
Track Severe Weather on mobile